Time;durP1;ratioP1;P1;durP2;ratioP2;P2;SDS_P1;SDS_P2;PMS_P1;PMS_P2;Temp;Humidity;BMP_temperature;BMP_pressure;BME280_temperature;BME280_humidity;BME280_pressure;Samples;Min_cycle;Max_cycle;Signal;HPM_P1;HPM_P2
2023/05/31 00:09:57;;;;;;;20.73;10.77;;;;;;;22.86;nan;98999.53;31593250;28;20048;-76
2023/05/31 00:24:59;;;;;;;24.15;10.55;;;;;;;22.88;nan;99013.59;31599791;28;20421;-75
2023/05/31 00:40:01;;;;;;;22.33;10.57;;;;;;;22.88;nan;99025.41;31597309;28;20469;-77
2023/05/31 00:55:04;;;;;;;19.40;8.97;;;;;;;23.05;nan;99025.13;31562697;28;20061;-76
2023/05/31 01:10:07;;;;;;;26.87;9.20;;;;;;;22.79;nan;99032.09;31579476;28;20060;-77
2023/05/31 01:25:31;;;;;;;26.43;9.83;;;;;;;23.04;nan;99054.06;31648758;28;20463;-76
2023/05/31 01:40:35;;;;;;;22.77;9.50;;;;;;;22.87;nan;99075.75;31640081;28;20056;-75
2023/05/31 01:55:37;;;;;;;26.97;10.40;;;;;;;22.82;nan;99090.41;31599892;28;20059;-76
2023/05/31 02:10:39;;;;;;;23.17;11.07;;;;;;;22.90;nan;99099.59;31584971;28;20060;-76
2023/05/31 02:25:45;;;;;;;28.73;11.83;;;;;;;22.90;nan;99127.25;31644388;28;20060;-75
2023/05/31 02:40:47;;;;;;;29.10;12.90;;;;;;;23.24;nan;99166.97;31595023;28;20073;-75
2023/05/31 02:55:51;;;;;;;29.80;12.63;;;;;;;21.80;nan;99200.69;31559319;28;20067;-76
2023/05/31 03:10:53;;;;;;;30.60;13.10;;;;;;;21.82;nan;99151.19;31593380;28;20592;-75
2023/05/31 03:25:55;;;;;;;33.83;16.13;;;;;;;21.81;nan;99133.13;31589810;28;20056;-76
2023/05/31 03:40:57;;;;;;;24.30;11.67;;;;;;;21.23;nan;99121.66;31601406;28;20052;-77
2023/05/31 03:55:59;;;;;;;30.77;11.67;;;;;;;21.55;nan;99110.81;31597175;28;20541;-75
2023/05/31 04:11:02;;;;;;;30.43;11.50;;;;;;;51.60;100.00;94108.91;31570259;28;20060;-76
2023/05/31 04:26:05;;;;;;;16.33;7.85;;;;;;;-144.18;100.00;69644.63;31591333;28;20055;-75
2023/05/31 04:41:08;;;;;;;19.15;8.10;;;;;;;-144.18;100.00;69644.63;31594740;28;20055;-76
2023/05/31 04:56:12;;;;;;;18.08;7.70;;;;;;;-144.18;100.00;69644.63;31604868;28;20087;-78
2023/05/31 05:11:14;;;;;;;19.13;8.85;;;;;;;-144.18;100.00;69644.63;31607760;28;20076;-75
2023/05/31 05:26:16;;;;;;;15.90;8.82;;;;;;;-144.18;100.00;69644.63;31609013;28;20086;-76
2023/05/31 05:41:18;;;;;;;12.75;8.07;;;;;;;-144.18;100.00;69644.63;31612423;28;20138;-77
2023/05/31 05:56:21;;;;;;;14.30;7.25;;;;;;;-144.18;100.00;69644.63;31621041;28;20052;-79
2023/05/31 06:11:23;;;;;;;12.93;8.02;;;;;;;-144.18;100.00;69644.63;31609789;28;20075;-80
2023/05/31 06:26:25;;;;;;;15.40;8.18;;;;;;;-144.18;100.00;69644.63;31611658;28;20464;-79
2023/05/31 06:41:29;;;;;;;11.93;7.77;;;;;;;-144.18;100.00;69644.63;31622685;28;20078;-82
2023/05/31 06:56:31;;;;;;;15.32;7.68;;;;;;;-144.18;100.00;69644.63;31635373;28;20512;-79
2023/05/31 07:11:33;;;;;;;16.85;9.73;;;;;;;32.06;nan;99667.47;31574273;28;20040;-77
2023/05/31 07:26:35;;;;;;;16.33;9.50;;;;;;;29.37;nan;99552.59;31592371;28;20457;-79
2023/05/31 07:41:38;;;;;;;21.00;10.45;;;;;;;28.99;nan;99566.63;31582949;28;20052;-81
2023/05/31 07:56:40;;;;;;;14.15;9.73;;;;;;;28.47;nan;99518.53;31601907;28;20075;-81
2023/05/31 08:11:42;;;;;;;14.45;9.50;;;;;;;28.65;nan;99550.94;31610552;28;20067;-80
2023/05/31 08:26:45;;;;;;;12.68;7.25;;;;;;;29.60;nan;99673.56;31595912;28;20509;-84
2023/05/31 08:42:01;;;;;;;16.73;9.15;;;;;;;29.98;nan;99773.50;31558478;28;20059;-82
2023/05/31 08:57:05;;;;;;;12.18;7.90;;;;;;;30.09;nan;99801.84;31585682;28;20044;-82
2023/05/31 09:12:07;;;;;;;15.68;8.50;;;;;;;29.51;nan;99839.88;31605063;28;20059;-78
2023/05/31 09:27:10;;;;;;;16.25;7.93;;;;;;;29.82;nan;99834.28;31561387;28;20036;-84
2023/05/31 09:42:13;;;;;;;14.17;7.53;;;;;;;30.61;nan;99849.22;31589695;28;20086;-78
2023/05/31 09:57:29;;;;;;;;;;;;;;;31.13;nan;99965.28;31578795;28;20052;-76
2023/05/31 10:12:36;;;;;;;9.25;5.90;;;;;;;32.30;nan;99862.47;31637164;28;19920;-88
2023/05/31 10:27:45;;;;;;;10.48;5.45;;;;;;;32.76;nan;99927.41;31596053;28;20064;-76
2023/05/31 10:43:00;;;;;;;8.05;4.72;;;;;;;33.50;nan;99909.50;31589924;28;20103;-78
2023/05/31 10:58:03;;;;;;;10.60;5.97;;;;;;;33.05;nan;99848.19;31588612;28;20455;-80
2023/05/31 11:13:07;;;;;;;8.98;5.88;;;;;;;32.95;nan;99822.06;31616696;28;20044;-80
2023/05/31 11:28:10;;;;;;;10.20;5.22;;;;;;;32.91;nan;99861.09;31586690;28;20059;-81
2023/05/31 11:43:19;;;;;;;7.68;4.85;;;;;;;32.18;nan;99828.47;31591282;28;20067;-81
2023/05/31 11:58:21;;;;;;;6.65;4.53;;;;;;;31.89;nan;99838.66;31608908;28;20059;-79
2023/05/31 12:13:23;;;;;;;7.87;4.73;;;;;;;32.35;nan;99866.38;31591722;28;20056;-78
2023/05/31 12:28:27;;;;;;;9.00;5.23;;;;;;;32.59;nan;99865.56;31588203;28;20497;-79
2023/05/31 12:43:30;;;;;;;7.38;4.90;;;;;;;32.33;nan;99798.81;31599147;28;20044;-83
2023/05/31 12:58:33;;;;;;;5.13;4.15;;;;;;;32.92;nan;99845.72;31582177;28;20059;-85
2023/05/31 13:13:38;;;;;;;8.40;6.55;;;;;;;32.87;nan;99839.03;31593955;28;20451;-79
2023/05/31 13:28:40;;;;;;;7.87;5.13;;;;;;;32.91;nan;99866.72;31625285;28;20056;-84
2023/05/31 13:43:43;;;;;;;15.40;12.87;;;;;;;32.81;nan;99814.00;31591163;28;20048;-80
2023/05/31 13:58:45;;;;;;;8.00;4.47;;;;;;;32.54;nan;99813.16;31598152;28;20507;-81
2023/05/31 14:13:48;;;;;;;8.43;4.87;;;;;;;31.94;nan;99843.28;31611740;28;20063;-85
2023/05/31 14:28:50;;;;;;;9.55;4.32;;;;;;;31.83;nan;99798.88;31595157;28;20070;-80
2023/05/31 14:43:52;;;;;;;6.90;4.60;;;;;;;31.26;nan;99770.84;31599076;28;20056;-83
2023/05/31 14:58:55;;;;;;;7.17;5.57;;;;;;;31.11;nan;99687.56;31584071;28;20059;-80
2023/05/31 15:13:57;;;;;;;8.87;4.90;;;;;;;30.69;nan;99632.19;31590244;28;20132;-82
2023/05/31 15:29:00;;;;;;;6.13;4.60;;;;;;;30.23;nan;99630.91;31592156;28;20059;-80
2023/05/31 15:44:03;;;;;;;7.47;4.47;;;;;;;30.09;nan;99650.72;31617471;28;20502;-80
2023/05/31 15:59:05;;;;;;;9.13;5.13;;;;;;;29.62;nan;99654.19;31601417;28;20051;-80
2023/05/31 16:14:07;;;;;;;8.07;5.18;;;;;;;29.63;nan;99660.50;31615724;28;20052;-82
2023/05/31 16:29:23;;;;;;;6.90;4.55;;;;;;;29.36;nan;99694.44;31575138;28;20053;-79
2023/05/31 16:44:25;;;;;;;6.32;5.07;;;;;;;29.17;nan;99727.59;31597886;28;20048;-79
2023/05/31 16:59:27;;;;;;;8.20;5.47;;;;;;;28.75;nan;99707.53;31609140;28;20059;-80
2023/05/31 17:14:29;;;;;;;5.90;3.95;;;;;;;28.55;nan;99725.91;31631133;28;20048;-82
2023/05/31 17:29:33;;;;;;;8.88;5.68;;;;;;;28.30;nan;99706.06;31604525;28;20052;-89
2023/05/31 17:44:35;;;;;;;8.02;4.50;;;;;;;28.23;nan;99759.06;31596043;28;20416;-78
2023/05/31 17:59:37;;;;;;;7.65;4.10;;;;;;;28.33;nan;99791.50;31600061;28;20064;-79
2023/05/31 18:14:39;;;;;;;8.95;3.17;;;;;;;28.11;nan;99787.22;31563769;28;20049;-78
2023/05/31 18:29:42;;;;;;;7.20;2.70;;;;;;;28.28;nan;99822.34;31599537;28;20095;-86
2023/05/31 18:44:45;;;;;;;8.93;4.63;;;;;;;28.07;nan;99859.38;31597832;28;20048;-81
2023/05/31 18:59:48;;;;;;;8.15;4.78;;;;;;;28.03;nan;99856.19;31597325;28;20060;-82
2023/05/31 19:14:50;;;;;;;12.65;5.05;;;;;;;27.93;nan;99857.19;31557823;28;20048;-80
2023/05/31 19:29:52;;;;;;;11.57;7.10;;;;;;;27.78;nan;99838.28;31613708;28;20082;-85
2023/05/31 19:44:54;;;;;;;10.32;6.43;;;;;;;27.50;nan;99834.09;31626927;28;20044;-83
2023/05/31 20:00:05;;;;;;;9.75;5.90;;;;;;;27.48;nan;99850.59;31612942;28;20512;-83
2023/05/31 20:15:09;;;;;;;12.55;7.85;;;;;;;27.60;nan;99858.75;31596465;28;20058;-85
2023/05/31 20:30:12;;;;;;;7.85;5.53;;;;;;;27.19;nan;99843.41;31600517;28;20052;-85
2023/05/31 20:45:14;;;;;;;9.43;5.63;;;;;;;27.49;nan;99888.34;31602829;28;20052;-84
2023/05/31 21:00:18;;;;;;;14.07;8.60;;;;;;;26.32;nan;99823.88;31606758;28;20123;-84
2023/05/31 21:15:20;;;;;;;20.98;14.32;;;;;;;26.73;nan;99848.38;31559420;28;20416;-85
2023/05/31 21:30:23;;;;;;;9.90;5.80;;;;;;;26.72;nan;99863.59;31588771;28;20536;-82
2023/05/31 21:45:25;;;;;;;8.07;4.25;;;;;;;26.53;nan;99862.94;31631797;28;20686;-82
2023/05/31 22:00:27;;;;;;;7.53;4.25;;;;;;;26.55;nan;99882.66;31590369;28;20543;-83
2023/05/31 22:15:29;;;;;;;11.52;4.53;;;;;;;26.29;nan;99857.56;31605464;28;20047;-83
2023/05/31 22:30:31;;;;;;;9.57;4.00;;;;;;;26.20;nan;99858.72;31632456;28;20063;-83
2023/05/31 22:45:34;;;;;;;9.00;6.82;;;;;;;26.29;nan;99861.09;31613885;28;20062;-84
2023/05/31 23:00:36;;;;;;;5.97;3.88;;;;;;;26.38;nan;99851.59;31610930;28;20056;-83
2023/05/31 23:15:39;;;;;;;6.10;3.53;;;;;;;26.54;nan;99874.84;31609605;28;20052;-84
2023/05/31 23:30:45;;;;;;;35.65;27.45;;;;;;;26.85;nan;99876.78;31609702;28;20064;-82
2023/05/31 23:45:47;;;;;;;5.78;4.07;;;;;;;26.73;nan;99865.09;31628356;28;20121;-82
